sensor_id;sensor_type;location;lat;lon;timestamp;temperature;humidity
59067;DHT22;44854;50.838;4.438;2023-06-05T04:03:17;14.40;99.90
59067;DHT22;44854;50.838;4.438;2023-06-05T04:05:43;14.40;99.90
59067;DHT22;44854;50.838;4.438;2023-06-05T04:08:09;14.40;99.90
59067;DHT22;44854;50.838;4.438;2023-06-05T04:10:35;14.50;99.90
59067;DHT22;44854;50.838;4.438;2023-06-05T04:13:01;14.50;99.90
59067;DHT22;44854;50.838;4.438;2023-06-05T04:15:29;14.40;99.90
59067;DHT22;44854;50.838;4.438;2023-06-05T04:17:55;14.50;99.90
59067;DHT22;44854;50.838;4.438;2023-06-05T04:20:21;14.50;99.90
59067;DHT22;44854;50.838;4.438;2023-06-05T04:22:47;14.40;99.90
59067;DHT22;44854;50.838;4.438;2023-06-05T04:25:13;14.40;99.90
59067;DHT22;44854;50.838;4.438;2023-06-05T04:27:39;14.40;99.90
59067;DHT22;44854;50.838;4.438;2023-06-05T04:30:05;14.30;99.90
59067;DHT22;44854;50.838;4.438;2023-06-05T04:32:31;14.40;99.90
59067;DHT22;44854;50.838;4.438;2023-06-05T04:34:59;14.40;99.90
59067;DHT22;44854;50.838;4.438;2023-06-05T04:37:25;14.30;99.90
59067;DHT22;44854;50.838;4.438;2023-06-05T04:39:51;14.10;99.90
59067;DHT22;44854;50.838;4.438;2023-06-05T04:42:17;14.10;99.90
59067;DHT22;44854;50.838;4.438;2023-06-05T04:44:43;14.10;99.90
59067;DHT22;44854;50.838;4.438;2023-06-05T04:47:09;14.10;99.90
59067;DHT22;44854;50.838;4.438;2023-06-05T04:49:35;14.00;99.90
59067;DHT22;44854;50.838;4.438;2023-06-05T04:52:00;14.00;99.90
59067;DHT22;44854;50.838;4.438;2023-06-05T04:54:26;14.00;99.90
59067;DHT22;44854;50.838;4.438;2023-06-05T04:56:51;13.80;99.90
59067;DHT22;44854;50.838;4.438;2023-06-05T04:59:21;14.10;99.90
59067;DHT22;44854;50.838;4.438;2023-06-05T05:01:47;14.10;99.90
59067;DHT22;44854;50.838;4.438;2023-06-05T05:04:14;14.00;99.90
59067;DHT22;44854;50.838;4.438;2023-06-05T05:06:40;14.10;99.90
59067;DHT22;44854;50.838;4.438;2023-06-05T05:09:15;14.20;99.90
59067;DHT22;44854;50.838;4.438;2023-06-05T05:11:41;14.30;99.90
59067;DHT22;44854;50.838;4.438;2023-06-05T05:14:06;14.20;99.90
59067;DHT22;44854;50.838;4.438;2023-06-05T05:16:32;14.30;99.90
59067;DHT22;44854;50.838;4.438;2023-06-05T05:18:59;14.20;99.90
59067;DHT22;44854;50.838;4.438;2023-06-05T05:21:24;14.30;99.90
59067;DHT22;44854;50.838;4.438;2023-06-05T05:23:51;14.30;99.90
59067;DHT22;44854;50.838;4.438;2023-06-05T05:26:16;14.40;99.90
59067;DHT22;44854;50.838;4.438;2023-06-05T05:28:42;14.50;99.90
59067;DHT22;44854;50.838;4.438;2023-06-05T05:31:07;14.60;99.90
59067;DHT22;44854;50.838;4.438;2023-06-05T05:33:33;14.60;99.90
59067;DHT22;44854;50.838;4.438;2023-06-05T05:35:58;14.50;99.90
59067;DHT22;44854;50.838;4.438;2023-06-05T05:38:24;14.60;99.90
59067;DHT22;44854;50.838;4.438;2023-06-05T05:40:50;14.40;99.90
59067;DHT22;44854;50.838;4.438;2023-06-05T05:43:16;14.60;99.90
59067;DHT22;44854;50.838;4.438;2023-06-05T05:45:41;14.70;99.90
59067;DHT22;44854;50.838;4.438;2023-06-05T05:48:09;14.70;99.90
59067;DHT22;44854;50.838;4.438;2023-06-05T05:50:35;14.70;99.90
59067;DHT22;44854;50.838;4.438;2023-06-05T05:53:00;14.80;99.90
59067;DHT22;44854;50.838;4.438;2023-06-05T05:55:26;14.90;99.90
59067;DHT22;44854;50.838;4.438;2023-06-05T05:57:51;14.80;99.90
59067;DHT22;44854;50.838;4.438;2023-06-05T06:00:17;14.70;99.90
59067;DHT22;44854;50.838;4.438;2023-06-05T06:02:43;14.80;99.90
59067;DHT22;44854;50.838;4.438;2023-06-05T06:05:08;14.90;99.90
59067;DHT22;44854;50.838;4.438;2023-06-05T06:07:35;15.10;99.90
59067;DHT22;44854;50.838;4.438;2023-06-05T06:10:01;15.40;99.90
59067;DHT22;44854;50.838;4.438;2023-06-05T06:12:27;15.50;99.90
59067;DHT22;44854;50.838;4.438;2023-06-05T06:14:54;15.60;99.90
59067;DHT22;44854;50.838;4.438;2023-06-05T06:17:21;15.80;99.90
59067;DHT22;44854;50.838;4.438;2023-06-05T06:19:47;15.80;99.90
59067;DHT22;44854;50.838;4.438;2023-06-05T06:22:14;15.80;99.90
59067;DHT22;44854;50.838;4.438;2023-06-05T06:24:39;15.90;99.90
59067;DHT22;44854;50.838;4.438;2023-06-05T06:27:06;16.00;99.90
59067;DHT22;44854;50.838;4.438;2023-06-05T06:29:33;16.10;99.90
59067;DHT22;44854;50.838;4.438;2023-06-05T06:31:59;16.30;99.90
59067;DHT22;44854;50.838;4.438;2023-06-05T06:34:25;16.30;99.90
59067;DHT22;44854;50.838;4.438;2023-06-05T06:36:51;16.40;99.90
59067;DHT22;44854;50.838;4.438;2023-06-05T06:39:17;16.50;99.90
59067;DHT22;44854;50.838;4.438;2023-06-05T06:41:43;16.50;99.90
59067;DHT22;44854;50.838;4.438;2023-06-05T06:44:09;16.50;99.90
59067;DHT22;44854;50.838;4.438;2023-06-05T06:46:35;16.50;99.90
59067;DHT22;44854;50.838;4.438;2023-06-05T06:49:02;16.70;99.90
59067;DHT22;44854;50.838;4.438;2023-06-05T06:51:27;16.80;99.90
59067;DHT22;44854;50.838;4.438;2023-06-05T06:53:53;16.80;99.90
59067;DHT22;44854;50.838;4.438;2023-06-05T06:56:18;16.80;99.90
59067;DHT22;44854;50.838;4.438;2023-06-05T06:58:44;16.70;99.90
59067;DHT22;44854;50.838;4.438;2023-06-05T07:01:16;16.80;99.90
59067;DHT22;44854;50.838;4.438;2023-06-05T07:03:42;17.00;99.90
59067;DHT22;44854;50.838;4.438;2023-06-05T07:06:09;17.30;99.90
59067;DHT22;44854;50.838;4.438;2023-06-05T07:08:34;17.50;99.90
59067;DHT22;44854;50.838;4.438;2023-06-05T07:11:00;17.50;99.90
59067;DHT22;44854;50.838;4.438;2023-06-05T07:13:26;17.60;99.90
59067;DHT22;44854;50.838;4.438;2023-06-05T07:15:51;17.60;99.90
59067;DHT22;44854;50.838;4.438;2023-06-05T07:18:17;17.60;99.90
59067;DHT22;44854;50.838;4.438;2023-06-05T07:20:43;17.50;99.90
59067;DHT22;44854;50.838;4.438;2023-06-05T07:23:09;17.70;99.90
59067;DHT22;44854;50.838;4.438;2023-06-05T07:25:34;17.80;99.90
59067;DHT22;44854;50.838;4.438;2023-06-05T07:28:00;17.60;99.90
59067;DHT22;44854;50.838;4.438;2023-06-05T07:30:27;17.70;99.90
59067;DHT22;44854;50.838;4.438;2023-06-05T07:32:53;17.50;99.90
59067;DHT22;44854;50.838;4.438;2023-06-05T07:35:20;17.50;99.90
59067;DHT22;44854;50.838;4.438;2023-06-05T07:37:46;17.70;99.90
59067;DHT22;44854;50.838;4.438;2023-06-05T07:40:11;17.70;99.90
59067;DHT22;44854;50.838;4.438;2023-06-05T07:42:37;17.90;99.90
59067;DHT22;44854;50.838;4.438;2023-06-05T07:45:03;18.00;99.90
59067;DHT22;44854;50.838;4.438;2023-06-05T07:47:29;18.10;99.90
59067;DHT22;44854;50.838;4.438;2023-06-05T07:49:57;18.10;99.90
59067;DHT22;44854;50.838;4.438;2023-06-05T07:52:24;17.60;99.90
59067;DHT22;44854;50.838;4.438;2023-06-05T07:54:50;17.50;99.90
59067;DHT22;44854;50.838;4.438;2023-06-05T07:57:16;17.60;99.90
59067;DHT22;44854;50.838;4.438;2023-06-05T07:59:41;17.70;99.90
59067;DHT22;44854;50.838;4.438;2023-06-05T08:02:07;17.90;99.90
59067;DHT22;44854;50.838;4.438;2023-06-05T08:04:33;17.90;99.90
59067;DHT22;44854;50.838;4.438;2023-06-05T08:06:59;17.80;99.90
59067;DHT22;44854;50.838;4.438;2023-06-05T08:09:25;18.10;99.90
59067;DHT22;44854;50.838;4.438;2023-06-05T08:12:00;17.90;99.90
59067;DHT22;44854;50.838;4.438;2023-06-05T08:14:25;17.80;99.90
59067;DHT22;44854;50.838;4.438;2023-06-05T08:16:51;18.20;99.90
59067;DHT22;44854;50.838;4.438;2023-06-05T08:19:17;18.30;99.90
59067;DHT22;44854;50.838;4.438;2023-06-05T08:21:42;18.30;99.90
59067;DHT22;44854;50.838;4.438;2023-06-05T08:24:08;18.20;99.90
59067;DHT22;44854;50.838;4.438;2023-06-05T08:26:33;18.20;99.90
59067;DHT22;44854;50.838;4.438;2023-06-05T08:28:59;18.40;99.90
59067;DHT22;44854;50.838;4.438;2023-06-05T08:31:25;18.40;99.90
59067;DHT22;44854;50.838;4.438;2023-06-05T08:33:50;18.40;99.90
59067;DHT22;44854;50.838;4.438;2023-06-05T08:36:16;18.30;99.90
59067;DHT22;44854;50.838;4.438;2023-06-05T08:38:43;18.50;99.90
59067;DHT22;44854;50.838;4.438;2023-06-05T08:41:08;18.60;99.90
59067;DHT22;44854;50.838;4.438;2023-06-05T08:43:37;18.70;99.90
59067;DHT22;44854;50.838;4.438;2023-06-05T08:46:04;18.90;99.90
59067;DHT22;44854;50.838;4.438;2023-06-05T08:48:30;18.80;99.90
59067;DHT22;44854;50.838;4.438;2023-06-05T08:50:57;18.80;99.90
59067;DHT22;44854;50.838;4.438;2023-06-05T08:53:32;19.00;99.90
59067;DHT22;44854;50.838;4.438;2023-06-05T08:56:01;18.90;99.90
59067;DHT22;44854;50.838;4.438;2023-06-05T08:58:27;18.90;99.90
59067;DHT22;44854;50.838;4.438;2023-06-05T09:00:53;19.00;99.90
59067;DHT22;44854;50.838;4.438;2023-06-05T09:03:25;19.00;99.90
59067;DHT22;44854;50.838;4.438;2023-06-05T09:05:51;19.10;99.90
59067;DHT22;44854;50.838;4.438;2023-06-05T09:08:17;18.90;99.90
59067;DHT22;44854;50.838;4.438;2023-06-05T09:10:44;19.00;99.90
59067;DHT22;44854;50.838;4.438;2023-06-05T09:13:10;19.20;99.90
59067;DHT22;44854;50.838;4.438;2023-06-05T09:15:39;19.50;99.90
59067;DHT22;44854;50.838;4.438;2023-06-05T09:18:13;19.70;99.90
59067;DHT22;44854;50.838;4.438;2023-06-05T09:20:41;19.90;99.90
59067;DHT22;44854;50.838;4.438;2023-06-05T09:25:52;19.90;99.90
59067;DHT22;44854;50.838;4.438;2023-06-05T09:28:18;19.80;99.90
59067;DHT22;44854;50.838;4.438;2023-06-05T09:30:56;20.00;99.90
59067;DHT22;44854;50.838;4.438;2023-06-05T09:33:23;20.10;99.90
59067;DHT22;44854;50.838;4.438;2023-06-05T09:36:01;20.10;99.90
59067;DHT22;44854;50.838;4.438;2023-06-05T09:38:27;20.30;99.90
59067;DHT22;44854;50.838;4.438;2023-06-05T09:41:00;20.40;99.90
59067;DHT22;44854;50.838;4.438;2023-06-05T09:43:26;20.30;99.90
59067;DHT22;44854;50.838;4.438;2023-06-05T09:45:53;20.40;99.90
59067;DHT22;44854;50.838;4.438;2023-06-05T09:48:19;20.50;99.90
59067;DHT22;44854;50.838;4.438;2023-06-05T09:50:45;20.70;99.90
59067;DHT22;44854;50.838;4.438;2023-06-05T09:53:11;20.80;99.90
59067;DHT22;44854;50.838;4.438;2023-06-05T09:55:38;20.90;99.90
59067;DHT22;44854;50.838;4.438;2023-06-05T09:58:04;20.80;99.90
59067;DHT22;44854;50.838;4.438;2023-06-05T10:00:40;21.10;99.90
59067;DHT22;44854;50.838;4.438;2023-06-05T10:03:17;21.20;99.90
59067;DHT22;44854;50.838;4.438;2023-06-05T10:05:44;21.20;99.30
59067;DHT22;44854;50.838;4.438;2023-06-05T10:08:11;21.30;99.50
59067;DHT22;44854;50.838;4.438;2023-06-05T10:10:38;21.50;99.10
59067;DHT22;44854;50.838;4.438;2023-06-05T10:13:04;21.30;99.50
59067;DHT22;44854;50.838;4.438;2023-06-05T10:15:31;21.40;99.00
59067;DHT22;44854;50.838;4.438;2023-06-05T10:17:57;21.50;99.00
59067;DHT22;44854;50.838;4.438;2023-06-05T10:20:23;21.50;98.60
59067;DHT22;44854;50.838;4.438;2023-06-05T10:22:50;21.70;98.40
59067;DHT22;44854;50.838;4.438;2023-06-05T10:25:21;21.50;98.80
59067;DHT22;44854;50.838;4.438;2023-06-05T10:38:24;21.70;97.70
59067;DHT22;44854;50.838;4.438;2023-06-05T10:41:00;21.80;97.50
59067;DHT22;44854;50.838;4.438;2023-06-05T10:45:54;21.90;97.60
59067;DHT22;44854;50.838;4.438;2023-06-05T10:48:20;22.00;97.00
59067;DHT22;44854;50.838;4.438;2023-06-05T10:50:46;21.90;97.10
59067;DHT22;44854;50.838;4.438;2023-06-05T10:55:56;22.20;96.40
59067;DHT22;44854;50.838;4.438;2023-06-05T10:58:21;22.50;95.90
59067;DHT22;44854;50.838;4.438;2023-06-05T11:03:55;22.60;95.70
59067;DHT22;44854;50.838;4.438;2023-06-05T11:06:21;22.60;95.90
59067;DHT22;44854;50.838;4.438;2023-06-05T11:14:22;22.60;95.70
59067;DHT22;44854;50.838;4.438;2023-06-05T11:16:48;22.50;95.40
59067;DHT22;44854;50.838;4.438;2023-06-05T11:22:01;22.90;94.80
59067;DHT22;44854;50.838;4.438;2023-06-05T11:24:27;23.20;94.60
59067;DHT22;44854;50.838;4.438;2023-06-05T11:26:53;23.40;93.90
59067;DHT22;44854;50.838;4.438;2023-06-05T11:29:19;23.70;93.40
59067;DHT22;44854;50.838;4.438;2023-06-05T11:31:45;23.70;93.20
59067;DHT22;44854;50.838;4.438;2023-06-05T11:34:11;23.50;92.80
59067;DHT22;44854;50.838;4.438;2023-06-05T11:36:38;23.60;92.40
59067;DHT22;44854;50.838;4.438;2023-06-05T11:39:04;23.60;92.00
59067;DHT22;44854;50.838;4.438;2023-06-05T11:41:31;23.70;92.30
59067;DHT22;44854;50.838;4.438;2023-06-05T11:43:56;23.60;91.60
59067;DHT22;44854;50.838;4.438;2023-06-05T11:46:38;23.80;91.80
59067;DHT22;44854;50.838;4.438;2023-06-05T11:49:04;23.60;92.10
59067;DHT22;44854;50.838;4.438;2023-06-05T11:51:35;23.70;91.40
59067;DHT22;44854;50.838;4.438;2023-06-05T11:54:02;23.90;91.70
59067;DHT22;44854;50.838;4.438;2023-06-05T11:56:28;24.00;91.00
59067;DHT22;44854;50.838;4.438;2023-06-05T11:58:55;24.20;90.90
59067;DHT22;44854;50.838;4.438;2023-06-05T12:01:22;24.30;90.00
59067;DHT22;44854;50.838;4.438;2023-06-05T12:03:49;24.10;89.50
59067;DHT22;44854;50.838;4.438;2023-06-05T12:06:26;24.20;90.20
59067;DHT22;44854;50.838;4.438;2023-06-05T12:08:53;24.00;90.00
59067;DHT22;44854;50.838;4.438;2023-06-05T12:11:34;24.10;89.30
59067;DHT22;44854;50.838;4.438;2023-06-05T12:14:00;24.20;90.30
59067;DHT22;44854;50.838;4.438;2023-06-05T12:18:58;24.20;90.50
59067;DHT22;44854;50.838;4.438;2023-06-05T12:21:24;24.40;89.20
59067;DHT22;44854;50.838;4.438;2023-06-05T12:23:50;24.30;88.80
59067;DHT22;44854;50.838;4.438;2023-06-05T12:26:16;24.20;88.80
59067;DHT22;44854;50.838;4.438;2023-06-05T12:28:42;23.90;90.30
59067;DHT22;44854;50.838;4.438;2023-06-05T12:33:54;24.20;89.80
59067;DHT22;44854;50.838;4.438;2023-06-05T12:36:19;24.40;88.60
59067;DHT22;44854;50.838;4.438;2023-06-05T12:38:46;24.30;89.20
59067;DHT22;44854;50.838;4.438;2023-06-05T12:41:11;24.30;89.20
59067;DHT22;44854;50.838;4.438;2023-06-05T12:43:37;24.50;87.40
59067;DHT22;44854;50.838;4.438;2023-06-05T12:46:04;24.70;87.40
59067;DHT22;44854;50.838;4.438;2023-06-05T12:48:30;24.90;87.10
59067;DHT22;44854;50.838;4.438;2023-06-05T12:50:57;24.90;86.50
59067;DHT22;44854;50.838;4.438;2023-06-05T12:53:25;24.70;87.20
59067;DHT22;44854;50.838;4.438;2023-06-05T12:55:50;24.90;86.80
59067;DHT22;44854;50.838;4.438;2023-06-05T12:58:16;24.80;87.20
59067;DHT22;44854;50.838;4.438;2023-06-05T13:00:41;24.70;86.90
59067;DHT22;44854;50.838;4.438;2023-06-05T13:03:09;24.80;85.10
59067;DHT22;44854;50.838;4.438;2023-06-05T13:05:35;25.10;85.70
59067;DHT22;44854;50.838;4.438;2023-06-05T13:08:01;25.00;86.50
59067;DHT22;44854;50.838;4.438;2023-06-05T13:10:26;24.70;86.30
59067;DHT22;44854;50.838;4.438;2023-06-05T13:12:52;24.40;86.00
59067;DHT22;44854;50.838;4.438;2023-06-05T13:15:17;24.60;86.70
59067;DHT22;44854;50.838;4.438;2023-06-05T13:17:43;24.70;85.20
59067;DHT22;44854;50.838;4.438;2023-06-05T13:20:11;25.00;84.80
59067;DHT22;44854;50.838;4.438;2023-06-05T13:22:37;25.00;84.40
59067;DHT22;44854;50.838;4.438;2023-06-05T13:25:03;25.20;83.80
59067;DHT22;44854;50.838;4.438;2023-06-05T13:27:29;25.10;83.00
59067;DHT22;44854;50.838;4.438;2023-06-05T13:29:55;25.30;84.00
59067;DHT22;44854;50.838;4.438;2023-06-05T13:32:21;25.30;82.10
59067;DHT22;44854;50.838;4.438;2023-06-05T13:34:47;25.10;83.30
59067;DHT22;44854;50.838;4.438;2023-06-05T13:37:13;25.00;84.70
59067;DHT22;44854;50.838;4.438;2023-06-05T13:39:38;24.90;82.00
59067;DHT22;44854;50.838;4.438;2023-06-05T13:42:04;24.90;81.70
59067;DHT22;44854;50.838;4.438;2023-06-05T13:44:30;24.90;80.40
59067;DHT22;44854;50.838;4.438;2023-06-05T13:46:55;24.90;81.00
59067;DHT22;44854;50.838;4.438;2023-06-05T13:49:21;25.00;81.50
59067;DHT22;44854;50.838;4.438;2023-06-05T13:51:47;25.10;82.30
59067;DHT22;44854;50.838;4.438;2023-06-05T13:54:12;25.00;81.60
59067;DHT22;44854;50.838;4.438;2023-06-05T13:56:38;25.20;81.90
59067;DHT22;44854;50.838;4.438;2023-06-05T13:59:03;25.00;81.90
59067;DHT22;44854;50.838;4.438;2023-06-05T14:01:29;25.00;81.50
59067;DHT22;44854;50.838;4.438;2023-06-05T14:03:55;25.20;80.30
59067;DHT22;44854;50.838;4.438;2023-06-05T14:06:22;25.10;79.70
59067;DHT22;44854;50.838;4.438;2023-06-05T14:08:47;25.00;80.70
59067;DHT22;44854;50.838;4.438;2023-06-05T14:11:13;25.00;81.00
59067;DHT22;44854;50.838;4.438;2023-06-05T14:13:38;25.20;81.50
59067;DHT22;44854;50.838;4.438;2023-06-05T14:16:04;25.40;81.20
59067;DHT22;44854;50.838;4.438;2023-06-05T14:18:30;25.40;81.10
59067;DHT22;44854;50.838;4.438;2023-06-05T14:20:56;25.20;81.40
59067;DHT22;44854;50.838;4.438;2023-06-05T14:23:22;24.80;81.10
59067;DHT22;44854;50.838;4.438;2023-06-05T14:25:49;24.70;82.30
59067;DHT22;44854;50.838;4.438;2023-06-05T14:28:15;25.00;81.30
59067;DHT22;44854;50.838;4.438;2023-06-05T14:30:40;25.30;81.10
59067;DHT22;44854;50.838;4.438;2023-06-05T14:33:06;25.70;79.60
59067;DHT22;44854;50.838;4.438;2023-06-05T14:35:31;25.50;78.60
59067;DHT22;44854;50.838;4.438;2023-06-05T14:37:57;25.20;80.20
59067;DHT22;44854;50.838;4.438;2023-06-05T14:40:23;25.20;80.40
59067;DHT22;44854;50.838;4.438;2023-06-05T14:42:49;25.20;80.60
59067;DHT22;44854;50.838;4.438;2023-06-05T14:45:15;25.40;82.10
59067;DHT22;44854;50.838;4.438;2023-06-05T14:47:40;25.50;79.90
59067;DHT22;44854;50.838;4.438;2023-06-05T14:50:07;25.50;79.90
59067;DHT22;44854;50.838;4.438;2023-06-05T14:52:33;25.50;79.90
59067;DHT22;44854;50.838;4.438;2023-06-05T14:54:59;25.30;80.20
59067;DHT22;44854;50.838;4.438;2023-06-05T14:57:24;25.00;80.90
59067;DHT22;44854;50.838;4.438;2023-06-05T14:59:50;24.80;81.30
59067;DHT22;44854;50.838;4.438;2023-06-05T15:02:15;24.70;81.40
59067;DHT22;44854;50.838;4.438;2023-06-05T15:04:42;24.80;81.40
59067;DHT22;44854;50.838;4.438;2023-06-05T15:07:07;25.10;80.30
59067;DHT22;44854;50.838;4.438;2023-06-05T15:09:34;25.00;78.40
59067;DHT22;44854;50.838;4.438;2023-06-05T15:12:00;24.90;79.00
59067;DHT22;44854;50.838;4.438;2023-06-05T15:14:25;25.00;80.50
59067;DHT22;44854;50.838;4.438;2023-06-05T15:16:51;25.10;81.50
59067;DHT22;44854;50.838;4.438;2023-06-05T15:19:17;25.20;82.00
59067;DHT22;44854;50.838;4.438;2023-06-05T15:21:42;25.50;81.30
59067;DHT22;44854;50.838;4.438;2023-06-05T15:24:08;25.40;82.60
59067;DHT22;44854;50.838;4.438;2023-06-05T15:26:34;24.90;82.40
59067;DHT22;44854;50.838;4.438;2023-06-05T15:28:59;24.90;82.50
59067;DHT22;44854;50.838;4.438;2023-06-05T15:31:25;25.00;81.80
59067;DHT22;44854;50.838;4.438;2023-06-05T15:33:51;25.00;82.30
59067;DHT22;44854;50.838;4.438;2023-06-05T15:36:16;25.20;82.50
59067;DHT22;44854;50.838;4.438;2023-06-05T15:38:42;25.20;82.90
59067;DHT22;44854;50.838;4.438;2023-06-05T15:41:07;25.10;81.90
59067;DHT22;44854;50.838;4.438;2023-06-05T15:43:33;25.30;82.50
59067;DHT22;44854;50.838;4.438;2023-06-05T15:45:59;25.40;82.40
59067;DHT22;44854;50.838;4.438;2023-06-05T15:48:24;25.30;82.50
59067;DHT22;44854;50.838;4.438;2023-06-05T15:50:50;25.20;82.20
59067;DHT22;44854;50.838;4.438;2023-06-05T15:53:16;25.10;82.30
59067;DHT22;44854;50.838;4.438;2023-06-05T15:55:41;25.20;82.10
59067;DHT22;44854;50.838;4.438;2023-06-05T15:58:08;25.10;81.90
59067;DHT22;44854;50.838;4.438;2023-06-05T16:00:33;25.10;83.10
59067;DHT22;44854;50.838;4.438;2023-06-05T16:02:59;25.20;82.40
59067;DHT22;44854;50.838;4.438;2023-06-05T16:05:25;25.20;82.30
59067;DHT22;44854;50.838;4.438;2023-06-05T16:07:50;25.30;82.80
59067;DHT22;44854;50.838;4.438;2023-06-05T16:10:16;25.50;82.80
59067;DHT22;44854;50.838;4.438;2023-06-05T16:12:43;25.70;82.50
59067;DHT22;44854;50.838;4.438;2023-06-05T16:15:08;25.50;83.10
59067;DHT22;44854;50.838;4.438;2023-06-05T16:17:34;25.30;84.00
59067;DHT22;44854;50.838;4.438;2023-06-05T16:19:59;25.10;82.50
59067;DHT22;44854;50.838;4.438;2023-06-05T16:22:25;25.20;83.40
59067;DHT22;44854;50.838;4.438;2023-06-05T16:24:51;25.10;83.20
59067;DHT22;44854;50.838;4.438;2023-06-05T16:27:17;25.00;83.20
59067;DHT22;44854;50.838;4.438;2023-06-05T16:29:45;24.80;83.60
59067;DHT22;44854;50.838;4.438;2023-06-05T16:32:12;24.70;83.60
59067;DHT22;44854;50.838;4.438;2023-06-05T16:34:37;24.60;84.90
59067;DHT22;44854;50.838;4.438;2023-06-05T16:37:05;24.70;85.30
59067;DHT22;44854;50.838;4.438;2023-06-05T16:39:31;24.70;85.50
59067;DHT22;44854;50.838;4.438;2023-06-05T16:41:57;24.80;85.70
59067;DHT22;44854;50.838;4.438;2023-06-05T16:44:27;24.90;85.60
59067;DHT22;44854;50.838;4.438;2023-06-05T16:46:52;24.90;86.00
59067;DHT22;44854;50.838;4.438;2023-06-05T16:49:18;24.70;85.60
59067;DHT22;44854;50.838;4.438;2023-06-05T16:51:44;24.80;85.70
59067;DHT22;44854;50.838;4.438;2023-06-05T16:54:09;24.90;85.80
59067;DHT22;44854;50.838;4.438;2023-06-05T16:56:37;24.70;85.20
59067;DHT22;44854;50.838;4.438;2023-06-05T16:59:12;24.60;85.90
59067;DHT22;44854;50.838;4.438;2023-06-05T17:01:38;24.70;86.70
59067;DHT22;44854;50.838;4.438;2023-06-05T17:04:04;24.60;87.60
59067;DHT22;44854;50.838;4.438;2023-06-05T17:06:30;24.80;87.90
59067;DHT22;44854;50.838;4.438;2023-06-05T17:08:57;24.60;88.60
59067;DHT22;44854;50.838;4.438;2023-06-05T17:11:23;24.70;88.70
59067;DHT22;44854;50.838;4.438;2023-06-05T17:13:48;24.60;89.40
59067;DHT22;44854;50.838;4.438;2023-06-05T17:16:14;24.50;90.00
59067;DHT22;44854;50.838;4.438;2023-06-05T17:18:40;24.30;90.30
59067;DHT22;44854;50.838;4.438;2023-06-05T17:21:05;24.10;90.60
59067;DHT22;44854;50.838;4.438;2023-06-05T17:23:31;24.30;90.50
59067;DHT22;44854;50.838;4.438;2023-06-05T17:25:57;24.30;90.60
59067;DHT22;44854;50.838;4.438;2023-06-05T17:28:23;24.30;90.30
59067;DHT22;44854;50.838;4.438;2023-06-05T17:30:48;24.30;90.60
59067;DHT22;44854;50.838;4.438;2023-06-05T17:33:14;24.50;90.30
59067;DHT22;44854;50.838;4.438;2023-06-05T17:35:40;24.60;90.10
59067;DHT22;44854;50.838;4.438;2023-06-05T17:38:06;24.90;90.20
59067;DHT22;44854;50.838;4.438;2023-06-05T17:40:31;25.00;90.10
59067;DHT22;44854;50.838;4.438;2023-06-05T17:42:57;25.20;90.20
59067;DHT22;44854;50.838;4.438;2023-06-05T17:45:22;25.50;89.60
59067;DHT22;44854;50.838;4.438;2023-06-05T17:47:48;25.70;89.30
59067;DHT22;44854;50.838;4.438;2023-06-05T17:50:13;25.90;88.80
59067;DHT22;44854;50.838;4.438;2023-06-05T17:52:39;25.90;88.10
59067;DHT22;44854;50.838;4.438;2023-06-05T17:55:06;25.80;89.10
59067;DHT22;44854;50.838;4.438;2023-06-05T17:57:31;26.20;88.70
59067;DHT22;44854;50.838;4.438;2023-06-05T17:59:57;26.10;88.80
59067;DHT22;44854;50.838;4.438;2023-06-05T18:02:23;26.20;88.40
59067;DHT22;44854;50.838;4.438;2023-06-05T18:04:48;25.90;88.50
59067;DHT22;44854;50.838;4.438;2023-06-05T18:07:14;25.90;88.80
59067;DHT22;44854;50.838;4.438;2023-06-05T18:09:40;26.10;88.70
59067;DHT22;44854;50.838;4.438;2023-06-05T18:12:06;25.90;88.70
59067;DHT22;44854;50.838;4.438;2023-06-05T18:14:32;25.70;88.80
59067;DHT22;44854;50.838;4.438;2023-06-05T18:16:57;25.70;89.30
59067;DHT22;44854;50.838;4.438;2023-06-05T18:19:23;25.20;89.80
59067;DHT22;44854;50.838;4.438;2023-06-05T18:21:49;24.80;90.30
59067;DHT22;44854;50.838;4.438;2023-06-05T18:24:14;24.60;90.70
59067;DHT22;44854;50.838;4.438;2023-06-05T18:26:41;24.70;90.90
59067;DHT22;44854;50.838;4.438;2023-06-05T18:29:07;24.80;90.80
59067;DHT22;44854;50.838;4.438;2023-06-05T18:31:33;24.90;90.60
59067;DHT22;44854;50.838;4.438;2023-06-05T18:33:58;24.70;90.50
59067;DHT22;44854;50.838;4.438;2023-06-05T18:36:24;24.70;90.40
59067;DHT22;44854;50.838;4.438;2023-06-05T18:38:49;24.90;90.30
59067;DHT22;44854;50.838;4.438;2023-06-05T18:41:16;24.50;90.60
59067;DHT22;44854;50.838;4.438;2023-06-05T18:43:41;24.30;91.00
59067;DHT22;44854;50.838;4.438;2023-06-05T18:46:07;24.20;91.20
59067;DHT22;44854;50.838;4.438;2023-06-05T18:48:32;24.10;91.20
59067;DHT22;44854;50.838;4.438;2023-06-05T18:50:58;23.90;91.60
59067;DHT22;44854;50.838;4.438;2023-06-05T18:53:29;23.60;91.80
59067;DHT22;44854;50.838;4.438;2023-06-05T18:55:55;23.10;92.50
59067;DHT22;44854;50.838;4.438;2023-06-05T18:58:20;23.00;92.70
59067;DHT22;44854;50.838;4.438;2023-06-05T19:00:46;22.80;92.90
59067;DHT22;44854;50.838;4.438;2023-06-05T19:03:12;22.80;93.00
59067;DHT22;44854;50.838;4.438;2023-06-05T19:05:37;22.60;93.20
59067;DHT22;44854;50.838;4.438;2023-06-05T19:08:04;22.50;93.30
59067;DHT22;44854;50.838;4.438;2023-06-05T19:10:30;22.40;93.50
59067;DHT22;44854;50.838;4.438;2023-06-05T19:12:57;22.30;93.50
59067;DHT22;44854;50.838;4.438;2023-06-05T19:15:25;22.20;93.60
59067;DHT22;44854;50.838;4.438;2023-06-05T19:17:51;22.10;93.50
59067;DHT22;44854;50.838;4.438;2023-06-05T19:20:17;22.00;94.00
59067;DHT22;44854;50.838;4.438;2023-06-05T19:22:42;22.00;93.90
59067;DHT22;44854;50.838;4.438;2023-06-05T19:25:08;22.00;93.90
59067;DHT22;44854;50.838;4.438;2023-06-05T19:27:34;21.90;94.00
59067;DHT22;44854;50.838;4.438;2023-06-05T19:29:59;21.80;94.20
59067;DHT22;44854;50.838;4.438;2023-06-05T19:32:25;21.80;94.20
59067;DHT22;44854;50.838;4.438;2023-06-05T19:34:50;21.60;94.40
59067;DHT22;44854;50.838;4.438;2023-06-05T19:37:16;21.50;94.40
59067;DHT22;44854;50.838;4.438;2023-06-05T19:39:42;21.40;94.60
59067;DHT22;44854;50.838;4.438;2023-06-05T19:42:08;21.20;94.80
59067;DHT22;44854;50.838;4.438;2023-06-05T19:44:34;21.30;94.80
59067;DHT22;44854;50.838;4.438;2023-06-05T19:46:59;21.20;95.00
59067;DHT22;44854;50.838;4.438;2023-06-05T19:49:25;21.30;94.70
59067;DHT22;44854;50.838;4.438;2023-06-05T19:51:51;21.20;94.80
59067;DHT22;44854;50.838;4.438;2023-06-05T19:54:16;21.10;94.90
59067;DHT22;44854;50.838;4.438;2023-06-05T19:56:42;21.00;95.00
59067;DHT22;44854;50.838;4.438;2023-06-05T19:59:08;20.90;95.20
59067;DHT22;44854;50.838;4.438;2023-06-05T20:01:34;20.80;95.30